Ardmore Calypso — V7WK2 — position and weather

sailwx.info

Track history (hours):
 
Tides and Currents Weather Stations Pressure Air Temp Water Temp Dewpoint Dewpoint Depression Visibility Wind Speed Wind Dir Waves Ship Positions

Ardmore Calypso

Last reported at 2017-Nov-15 13:07 UTC. Time now 2017-Dec-16 05:28 UTC.
Position N 01°27' E 103°11'.
Warning: this ship's position is 30 days out of date.

Length 144 m; draft 6 m.

Type: Tanker. MMSI: 538004320.

Date/timePositionNaut miles runAvg speedWind from/ knotsBaromVisibWave heightAir tempDewpointWater temp
2017-Nov-15 13:07N 01°27' E 103°11'212.8
2017-Nov-15 12:59N 01°26' E 103°12'613.0
2017-Nov-15 12:30N 01°21' E 103°17'713.2
2017-Nov-15 12:00N 01°17' E 103°22'713.7
2017-Nov-15 11:30N 01°14' E 103°28'714.1
2017-Nov-15 11:00N 01°12' E 103°35'713.6
2017-Nov-15 10:30N 01°10' E 103°41'611.4
2017-Nov-15 10:00N 01°10' E 103°47'3 5.7
2017-Nov-15 09:30N 01°13' E 103°48'1 0.8
2017-Nov-15 08:52N 01°14' E 103°48'0 0.2
2017-Nov-15 08:29N 01°14' E 103°48'0 0.0
2017-Nov-15 07:54N 01°14' E 103°48'0 0.0
2017-Nov-15 07:23N 01°14' E 103°48'0 0.0
2017-Nov-15 06:58N 01°14' E 103°48'0 0.0
2017-Nov-15 06:26N 01°14' E 103°48'0 0.0
2017-Nov-15 05:58N 01°14' E 103°48'0 0.0
2017-Nov-15 05:31N 01°14' E 103°48'0 0.0
2017-Nov-15 04:59N 01°14' E 103°48'0 0.0
2017-Nov-15 04:21N 01°14' E 103°48'0 0.3
2017-Nov-15 03:57N 01°14' E 103°48'0 0.2
2017-Nov-15 03:30N 01°14' E 103°48'0 0.0
2017-Nov-15 03:00N 01°13' E 103°48'2 3.1
2017-Nov-15 02:30N 01°13' E 103°49'4 9.0
2017-Nov-15 02:00N 01°14' E 103°54'510.1
2017-Nov-15 01:31N 01°16' E 103°58'1 2.9
2017-Nov-15 01:00N 01°16' E 103°60'4 7.8
2017-Nov-15 00:26N 01°16' E 104°04'5 9.2
2017-Nov-14 23:55N 01°17' E 104°09'5 9.7
2017-Nov-14 23:26N 01°18' E 104°14'5 9.9
2017-Nov-14 22:58N 01°18' E 104°18'510.2
2017-Nov-14 22:28N 01°21' E 104°23'  
Track history (hours):
 
Tides and Currents Weather Stations Pressure Air Temp Water Temp Dewpoint Dewpoint Depression Visibility Wind Speed Wind Dir Waves Ship Positions

Ardmore Calypso

Last reported at 2017-Nov-15 13:07 UTC. Time now 2017-Dec-16 05:28 UTC.
Position N 01°27' E 103°11'.
Warning: this ship's position is 30 days out of date.

Length 144 m; draft 6 m.

Type: Tanker. MMSI: 538004320.

Date/timePositionNaut miles runAvg speedWind from/ knotsBaromVisibWave heightAir tempDewpointWater temp
2017-Nov-15 13:07N 01°27' E 103°11'212.8
2017-Nov-15 12:59N 01°26' E 103°12'613.0
2017-Nov-15 12:30N 01°21' E 103°17'713.2
2017-Nov-15 12:00N 01°17' E 103°22'713.7
2017-Nov-15 11:30N 01°14' E 103°28'714.1
2017-Nov-15 11:00N 01°12' E 103°35'713.6
2017-Nov-15 10:30N 01°10' E 103°41'611.4
2017-Nov-15 10:00N 01°10' E 103°47'3 5.7
2017-Nov-15 09:30N 01°13' E 103°48'1 0.8
2017-Nov-15 08:52N 01°14' E 103°48'0 0.2
2017-Nov-15 08:29N 01°14' E 103°48'0 0.0
2017-Nov-15 07:54N 01°14' E 103°48'0 0.0
2017-Nov-15 07:23N 01°14' E 103°48'0 0.0
2017-Nov-15 06:58N 01°14' E 103°48'0 0.0
2017-Nov-15 06:26N 01°14' E 103°48'0 0.0
2017-Nov-15 05:58N 01°14' E 103°48'0 0.0
2017-Nov-15 05:31N 01°14' E 103°48'0 0.0
2017-Nov-15 04:59N 01°14' E 103°48'0 0.0
2017-Nov-15 04:21N 01°14' E 103°48'0 0.3
2017-Nov-15 03:57N 01°14' E 103°48'0 0.2
2017-Nov-15 03:30N 01°14' E 103°48'0 0.0
2017-Nov-15 03:00N 01°13' E 103°48'2 3.1
2017-Nov-15 02:30N 01°13' E 103°49'4 9.0
2017-Nov-15 02:00N 01°14' E 103°54'510.1
2017-Nov-15 01:31N 01°16' E 103°58'1 2.9
2017-Nov-15 01:00N 01°16' E 103°60'4 7.8
2017-Nov-15 00:26N 01°16' E 104°04'5 9.2
2017-Nov-14 23:55N 01°17' E 104°09'5 9.7
2017-Nov-14 23:26N 01°18' E 104°14'5 9.9
2017-Nov-14 22:58N 01°18' E 104°18'510.2
2017-Nov-14 22:28N 01°21' E 104°23'  

Dump ship's entire track history